sensor_id;sensor_type;location;lat;lon;timestamp;pressure;altitude;pressure_sealevel;temperature;humidity
38197;BME280;26543;51.976;4.616;2023-07-08T00:01:52;52222.44;;;-140.72;0.00
38197;BME280;26543;51.976;4.616;2023-07-08T00:04:18;52220.41;;;-140.72;0.00
38197;BME280;26543;51.976;4.616;2023-07-08T00:06:43;52212.31;;;-140.72;0.00
38197;BME280;26543;51.976;4.616;2023-07-08T00:09:10;52232.59;;;-140.72;0.00
38197;BME280;26543;51.976;4.616;2023-07-08T00:11:36;52216.34;;;-140.72;0.00
38197;BME280;26543;51.976;4.616;2023-07-08T00:14:01;52246.78;;;-140.72;0.00
38197;BME280;26543;51.976;4.616;2023-07-08T00:16:27;52216.34;;;-140.72;0.00
38197;BME280;26543;51.976;4.616;2023-07-08T00:18:52;52242.75;;;-140.72;0.00
38197;BME280;26543;51.976;4.616;2023-07-08T00:21:17;52230.56;;;-140.72;0.00
38197;BME280;26543;51.976;4.616;2023-07-08T00:23:43;52189.97;;;-140.72;0.00
38197;BME280;26543;51.976;4.616;2023-07-08T00:26:10;52287.38;;;-140.72;0.00
38197;BME280;26543;51.976;4.616;2023-07-08T00:28:36;52244.78;;;-140.72;0.00
38197;BME280;26543;51.976;4.616;2023-07-08T00:31:01;52220.41;;;-140.72;0.00
38197;BME280;26543;51.976;4.616;2023-07-08T00:33:27;52224.47;;;-140.72;0.00
38197;BME280;26543;51.976;4.616;2023-07-08T00:35:52;52222.44;;;-140.72;0.00
38197;BME280;26543;51.976;4.616;2023-07-08T00:43:30;52271.16;;;-140.72;0.00
38197;BME280;26543;51.976;4.616;2023-07-08T00:46:03;52228.53;;;-140.72;0.00
38197;BME280;26543;51.976;4.616;2023-07-08T00:48:36;52232.59;;;-140.72;0.00
38197;BME280;26543;51.976;4.616;2023-07-08T00:51:02;52258.97;;;-140.72;0.00
38197;BME280;26543;51.976;4.616;2023-07-08T00:53:28;52242.75;;;-140.72;0.00
38197;BME280;26543;51.976;4.616;2023-07-08T00:56:28;52214.34;;;-140.72;0.00
38197;BME280;26543;51.976;4.616;2023-07-08T00:58:47;52269.13;;;-140.72;0.00
38197;BME280;26543;51.976;4.616;2023-07-08T01:01:14;52240.72;;;-140.72;0.00
38197;BME280;26543;51.976;4.616;2023-07-08T01:03:45;52299.56;;;-140.72;0.00
38197;BME280;26543;51.976;4.616;2023-07-08T01:06:14;52200.13;;;-140.72;0.00
38197;BME280;26543;51.976;4.616;2023-07-08T01:08:39;52234.63;;;-140.72;0.00
38197;BME280;26543;51.976;4.616;2023-07-08T01:11:04;52297.53;;;-140.72;0.00
38197;BME280;26543;51.976;4.616;2023-07-08T01:13:31;52228.53;;;-140.72;0.00
38197;BME280;26543;51.976;4.616;2023-07-08T01:15:57;52258.97;;;-140.72;0.00
38197;BME280;26543;51.976;4.616;2023-07-08T01:18:23;52232.59;;;-140.72;0.00
38197;BME280;26543;51.976;4.616;2023-07-08T01:20:50;52267.09;;;-140.72;0.00
38197;BME280;26543;51.976;4.616;2023-07-08T01:23:15;52285.34;;;-140.72;0.00
38197;BME280;26543;51.976;4.616;2023-07-08T01:25:41;52265.06;;;-140.72;0.00
38197;BME280;26543;51.976;4.616;2023-07-08T01:28:07;52281.28;;;-140.72;0.00
38197;BME280;26543;51.976;4.616;2023-07-08T01:30:32;52265.06;;;-140.72;0.00
38197;BME280;26543;51.976;4.616;2023-07-08T01:32:59;52285.34;;;-140.72;0.00
38197;BME280;26543;51.976;4.616;2023-07-08T01:35:26;52252.88;;;-140.72;0.00
38197;BME280;26543;51.976;4.616;2023-07-08T01:37:53;52256.94;;;-140.72;0.00
38197;BME280;26543;51.976;4.616;2023-07-08T01:42:44;52295.50;;;-140.72;0.00
38197;BME280;26543;51.976;4.616;2023-07-08T01:45:13;52283.31;;;-140.72;0.00
38197;BME280;26543;51.976;4.616;2023-07-08T01:47:39;52275.19;;;-140.72;0.00
38197;BME280;26543;51.976;4.616;2023-07-08T01:50:06;52281.28;;;-140.72;0.00
38197;BME280;26543;51.976;4.616;2023-07-08T01:52:31;52283.31;;;-140.72;0.00
38197;BME280;26543;51.976;4.616;2023-07-08T01:54:57;52285.34;;;-140.72;0.00
38197;BME280;26543;51.976;4.616;2023-07-08T01:57:22;52269.13;;;-140.72;0.00
38197;BME280;26543;51.976;4.616;2023-07-08T01:59:47;52289.41;;;-140.72;0.00
38197;BME280;26543;51.976;4.616;2023-07-08T02:02:12;52289.41;;;-140.72;0.00
38197;BME280;26543;51.976;4.616;2023-07-08T02:04:38;52340.13;;;-140.72;0.00
38197;BME280;26543;51.976;4.616;2023-07-08T02:07:03;52275.19;;;-140.72;0.00
38197;BME280;26543;51.976;4.616;2023-07-08T02:09:29;52303.59;;;-140.72;0.00
38197;BME280;26543;51.976;4.616;2023-07-08T02:11:55;52291.44;;;-140.72;0.00
38197;BME280;26543;51.976;4.616;2023-07-08T02:14:20;52277.22;;;-140.72;0.00
38197;BME280;26543;51.976;4.616;2023-07-08T02:16:46;52313.75;;;-140.72;0.00
38197;BME280;26543;51.976;4.616;2023-07-08T02:19:11;52271.16;;;-140.72;0.00
38197;BME280;26543;51.976;4.616;2023-07-08T02:21:37;52291.44;;;-140.72;0.00
38197;BME280;26543;51.976;4.616;2023-07-08T02:24:02;52313.75;;;-140.72;0.00
38197;BME280;26543;51.976;4.616;2023-07-08T02:26:27;52311.72;;;-140.72;0.00
38197;BME280;26543;51.976;4.616;2023-07-08T02:28:53;52301.59;;;-140.72;0.00
38197;BME280;26543;51.976;4.616;2023-07-08T02:31:18;52315.78;;;-140.72;0.00
38197;BME280;26543;51.976;4.616;2023-07-08T02:33:43;52323.91;;;-140.72;0.00
38197;BME280;26543;51.976;4.616;2023-07-08T02:36:08;52311.72;;;-140.72;0.00
38197;BME280;26543;51.976;4.616;2023-07-08T02:38:34;52309.69;;;-140.72;0.00
38197;BME280;26543;51.976;4.616;2023-07-08T02:40:59;52315.78;;;-140.72;0.00
38197;BME280;26543;51.976;4.616;2023-07-08T02:43:25;52309.69;;;-140.72;0.00
38197;BME280;26543;51.976;4.616;2023-07-08T02:46:05;52330.00;;;-140.72;3.72
38197;BME280;26543;51.976;4.616;2023-07-08T02:48:31;52291.44;;;-140.72;9.72
38197;BME280;26543;51.976;4.616;2023-07-08T02:50:59;52315.78;;;-140.72;10.24
38197;BME280;26543;51.976;4.616;2023-07-08T02:53:25;52334.03;;;-140.72;9.84
38197;BME280;26543;51.976;4.616;2023-07-08T02:55:50;52295.50;;;-140.72;19.31
38197;BME280;26543;51.976;4.616;2023-07-08T02:58:21;52338.09;;;-140.72;15.38
38197;BME280;26543;51.976;4.616;2023-07-08T03:00:59;52319.84;;;-140.72;26.27
38197;BME280;26543;51.976;4.616;2023-07-08T03:06:00;52313.75;;;-140.72;43.15
38197;BME280;26543;51.976;4.616;2023-07-08T03:08:26;52317.81;;;-140.72;41.17
38197;BME280;26543;51.976;4.616;2023-07-08T03:10:59;52330.00;;;-140.72;37.62
38197;BME280;26543;51.976;4.616;2023-07-08T03:13:24;52325.94;;;-140.72;29.66
38197;BME280;26543;51.976;4.616;2023-07-08T03:15:50;52338.09;;;-140.72;34.76
38197;BME280;26543;51.976;4.616;2023-07-08T03:18:16;52309.69;;;-140.72;41.96
38197;BME280;26543;51.976;4.616;2023-07-08T03:20:41;52334.03;;;-140.72;37.44
38197;BME280;26543;51.976;4.616;2023-07-08T03:23:10;52350.28;;;-140.72;41.66
38197;BME280;26543;51.976;4.616;2023-07-08T03:25:35;52317.81;;;-140.72;48.62
38197;BME280;26543;51.976;4.616;2023-07-08T03:30:39;52348.25;;;-140.72;46.70
38197;BME280;26543;51.976;4.616;2023-07-08T03:33:05;52338.09;;;-140.72;46.29
38197;BME280;26543;51.976;4.616;2023-07-08T03:35:32;52332.03;;;-140.72;48.37
38197;BME280;26543;51.976;4.616;2023-07-08T03:37:57;52317.81;;;-140.72;50.24
38197;BME280;26543;51.976;4.616;2023-07-08T03:40:23;52354.34;;;-140.72;57.82
38197;BME280;26543;51.976;4.616;2023-07-08T03:42:48;52301.59;;;-140.72;69.93
38197;BME280;26543;51.976;4.616;2023-07-08T03:45:13;52348.25;;;-140.72;79.91
38197;BME280;26543;51.976;4.616;2023-07-08T03:47:39;52289.41;;;-140.72;83.15
38197;BME280;26543;51.976;4.616;2023-07-08T03:50:04;52354.34;;;-140.72;77.59
38197;BME280;26543;51.976;4.616;2023-07-08T03:52:30;52342.16;;;-140.72;75.65
38197;BME280;26543;51.976;4.616;2023-07-08T03:54:57;52321.88;;;-140.72;79.26
38197;BME280;26543;51.976;4.616;2023-07-08T03:57:22;52334.03;;;-140.72;70.55
38197;BME280;26543;51.976;4.616;2023-07-08T03:59:55;52330.00;;;-140.72;81.43
38197;BME280;26543;51.976;4.616;2023-07-08T04:02:20;52342.16;;;-140.72;86.41
38197;BME280;26543;51.976;4.616;2023-07-08T04:04:46;52307.66;;;-140.72;74.31
38197;BME280;26543;51.976;4.616;2023-07-08T04:07:11;52366.50;;;-140.72;79.86
38197;BME280;26543;51.976;4.616;2023-07-08T04:09:38;52342.16;;;-140.72;84.42
38197;BME280;26543;51.976;4.616;2023-07-08T04:12:09;52303.59;;;-140.72;82.65
38197;BME280;26543;51.976;4.616;2023-07-08T04:14:44;52342.16;;;-140.72;72.21
38197;BME280;26543;51.976;4.616;2023-07-08T04:17:09;52289.41;;;-140.72;69.24
38197;BME280;26543;51.976;4.616;2023-07-08T04:19:36;52313.75;;;-140.72;63.31
38197;BME280;26543;51.976;4.616;2023-07-08T04:22:01;52362.44;;;-140.72;70.47
38197;BME280;26543;51.976;4.616;2023-07-08T04:24:26;52285.34;;;-140.72;68.49
38197;BME280;26543;51.976;4.616;2023-07-08T04:26:51;52336.06;;;-140.72;62.47
38197;BME280;26543;51.976;4.616;2023-07-08T04:29:20;52344.19;;;-140.72;64.99
38197;BME280;26543;51.976;4.616;2023-07-08T04:31:46;52362.44;;;-140.72;64.52
38197;BME280;26543;51.976;4.616;2023-07-08T04:34:13;52344.19;;;-140.72;64.41
38197;BME280;26543;51.976;4.616;2023-07-08T04:36:39;52291.44;;;-140.72;64.13
38197;BME280;26543;51.976;4.616;2023-07-08T04:39:04;52317.81;;;-140.72;61.01
38197;BME280;26543;51.976;4.616;2023-07-08T04:41:30;52334.03;;;-140.72;51.52
38197;BME280;26543;51.976;4.616;2023-07-08T04:43:55;52321.88;;;-140.72;50.61
38197;BME280;26543;51.976;4.616;2023-07-08T04:46:39;52334.03;;;-140.72;43.09
38197;BME280;26543;51.976;4.616;2023-07-08T04:49:05;52283.31;;;-140.72;40.92
38197;BME280;26543;51.976;4.616;2023-07-08T04:51:31;52323.91;;;-140.72;37.50
38197;BME280;26543;51.976;4.616;2023-07-08T04:54:08;52334.03;;;-140.72;38.20
38197;BME280;26543;51.976;4.616;2023-07-08T04:56:41;52313.75;;;-140.72;41.74
38197;BME280;26543;51.976;4.616;2023-07-08T04:59:09;52334.03;;;-140.72;44.45
38197;BME280;26543;51.976;4.616;2023-07-08T05:01:35;52317.81;;;-140.72;46.11
38197;BME280;26543;51.976;4.616;2023-07-08T05:04:00;52342.16;;;-140.72;51.43
38197;BME280;26543;51.976;4.616;2023-07-08T05:06:26;52340.13;;;-140.72;47.34
38197;BME280;26543;51.976;4.616;2023-07-08T05:08:51;52301.59;;;-140.72;54.10
38197;BME280;26543;51.976;4.616;2023-07-08T05:11:18;52305.63;;;-140.72;44.94
38197;BME280;26543;51.976;4.616;2023-07-08T05:13:45;52303.59;;;-140.72;47.61
38197;BME280;26543;51.976;4.616;2023-07-08T05:16:10;52303.59;;;-140.72;39.16
38197;BME280;26543;51.976;4.616;2023-07-08T05:18:36;52321.88;;;-140.72;36.96
38197;BME280;26543;51.976;4.616;2023-07-08T05:21:11;52297.53;;;-140.72;36.60
38197;BME280;26543;51.976;4.616;2023-07-08T05:23:36;52311.72;;;-140.72;37.31
38197;BME280;26543;51.976;4.616;2023-07-08T05:26:02;52334.03;;;-140.72;38.05
38197;BME280;26543;51.976;4.616;2023-07-08T05:28:28;52307.66;;;-140.72;37.00
38197;BME280;26543;51.976;4.616;2023-07-08T05:30:55;52313.75;;;-140.72;39.73
38197;BME280;26543;51.976;4.616;2023-07-08T05:33:20;52263.03;;;-140.72;37.16
38197;BME280;26543;51.976;4.616;2023-07-08T05:35:46;52303.59;;;-140.72;27.31
38197;BME280;26543;51.976;4.616;2023-07-08T05:38:11;52293.47;;;-140.72;29.83
38197;BME280;26543;51.976;4.616;2023-07-08T05:40:36;52295.50;;;-140.72;25.61
38197;BME280;26543;51.976;4.616;2023-07-08T05:43:01;52289.41;;;-140.72;23.11
38197;BME280;26543;51.976;4.616;2023-07-08T05:45:27;52265.06;;;-140.72;20.55
38197;BME280;26543;51.976;4.616;2023-07-08T05:47:52;52289.41;;;-140.72;21.65
38197;BME280;26543;51.976;4.616;2023-07-08T05:50:17;52317.81;;;-140.72;6.32
38197;BME280;26543;51.976;4.616;2023-07-08T05:52:42;52273.19;;;-140.72;5.08
38197;BME280;26543;51.976;4.616;2023-07-08T05:55:08;52254.91;;;-140.72;0.00
38197;BME280;26543;51.976;4.616;2023-07-08T05:57:33;52258.97;;;-140.72;0.00
38197;BME280;26543;51.976;4.616;2023-07-08T05:59:58;52291.44;;;-140.72;0.00
38197;BME280;26543;51.976;4.616;2023-07-08T06:02:24;52256.94;;;-140.72;0.00
38197;BME280;26543;51.976;4.616;2023-07-08T06:04:50;52246.78;;;-140.72;0.00
38197;BME280;26543;51.976;4.616;2023-07-08T06:07:16;52265.06;;;-140.72;0.00
38197;BME280;26543;51.976;4.616;2023-07-08T06:09:42;52261.00;;;-140.72;0.00
38197;BME280;26543;51.976;4.616;2023-07-08T06:12:13;52261.00;;;-140.72;0.00
38197;BME280;26543;51.976;4.616;2023-07-08T06:14:38;52218.38;;;-140.72;0.00
38197;BME280;26543;51.976;4.616;2023-07-08T06:17:04;52236.66;;;-140.72;0.00
38197;BME280;26543;51.976;4.616;2023-07-08T06:19:29;52250.84;;;-140.72;0.00
38197;BME280;26543;51.976;4.616;2023-07-08T06:21:54;52214.34;;;-140.72;0.00
38197;BME280;26543;51.976;4.616;2023-07-08T06:24:20;52246.78;;;-140.72;0.00
38197;BME280;26543;51.976;4.616;2023-07-08T06:26:45;52196.06;;;-140.72;0.00
38197;BME280;26543;51.976;4.616;2023-07-08T06:29:11;52220.41;;;-140.72;0.00
38197;BME280;26543;51.976;4.616;2023-07-08T06:31:36;52265.06;;;-140.72;0.00
38197;BME280;26543;51.976;4.616;2023-07-08T06:34:01;52232.59;;;-140.72;0.00
38197;BME280;26543;51.976;4.616;2023-07-08T06:36:27;52192.00;;;-140.72;0.00
38197;BME280;26543;51.976;4.616;2023-07-08T06:38:52;52208.25;;;-140.72;0.00
38197;BME280;26543;51.976;4.616;2023-07-08T06:41:17;52228.53;;;-140.72;0.00
38197;BME280;26543;51.976;4.616;2023-07-08T06:43:43;52177.81;;;-140.72;0.00
38197;BME280;26543;51.976;4.616;2023-07-08T06:46:08;52220.41;;;-140.72;0.00
38197;BME280;26543;51.976;4.616;2023-07-08T06:48:33;52192.00;;;-140.72;0.00
38197;BME280;26543;51.976;4.616;2023-07-08T06:50:58;52196.06;;;-140.72;0.00
38197;BME280;26543;51.976;4.616;2023-07-08T06:53:24;52206.22;;;-140.72;0.00
38197;BME280;26543;51.976;4.616;2023-07-08T06:55:49;52218.38;;;-140.72;0.00
38197;BME280;26543;51.976;4.616;2023-07-08T06:58:15;52218.38;;;-140.72;0.00
38197;BME280;26543;51.976;4.616;2023-07-08T07:00:43;52202.16;;;-140.72;0.00
38197;BME280;26543;51.976;4.616;2023-07-08T07:03:09;52187.97;;;-140.72;0.00
38197;BME280;26543;51.976;4.616;2023-07-08T07:05:34;52165.63;;;-140.72;0.00
38197;BME280;26543;51.976;4.616;2023-07-08T07:08:00;52192.00;;;-140.72;0.00
38197;BME280;26543;51.976;4.616;2023-07-08T07:10:25;52179.84;;;-140.72;0.00
38197;BME280;26543;51.976;4.616;2023-07-08T07:12:50;52171.72;;;-140.72;0.00
38197;BME280;26543;51.976;4.616;2023-07-08T07:15:15;52183.91;;;-140.72;0.00
38197;BME280;26543;51.976;4.616;2023-07-08T07:17:41;52183.91;;;-140.72;0.00
38197;BME280;26543;51.976;4.616;2023-07-08T07:20:06;52177.81;;;-140.72;0.00
38197;BME280;26543;51.976;4.616;2023-07-08T07:22:32;52118.97;;;-140.72;0.00
38197;BME280;26543;51.976;4.616;2023-07-08T07:24:57;52171.72;;;-140.72;0.00
38197;BME280;26543;51.976;4.616;2023-07-08T07:27:23;52139.25;;;-140.72;0.00
38197;BME280;26543;51.976;4.616;2023-07-08T07:29:49;52112.88;;;-140.72;0.00
38197;BME280;26543;51.976;4.616;2023-07-08T07:32:14;52137.22;;;-140.72;0.00
38197;BME280;26543;51.976;4.616;2023-07-08T07:34:40;52137.22;;;-140.72;0.00
38197;BME280;26543;51.976;4.616;2023-07-08T07:37:06;52145.34;;;-140.72;0.00
38197;BME280;26543;51.976;4.616;2023-07-08T07:39:35;52143.31;;;-140.72;0.00
38197;BME280;26543;51.976;4.616;2023-07-08T07:42:00;52106.78;;;-140.72;0.00
38197;BME280;26543;51.976;4.616;2023-07-08T07:44:25;52094.63;;;-140.72;0.00
38197;BME280;26543;51.976;4.616;2023-07-08T07:46:52;52080.41;;;-140.72;0.00
38197;BME280;26543;51.976;4.616;2023-07-08T07:49:17;52092.59;;;-140.72;0.00
38197;BME280;26543;51.976;4.616;2023-07-08T07:51:42;52082.44;;;-140.72;0.00
38197;BME280;26543;51.976;4.616;2023-07-08T07:54:08;52104.75;;;-140.72;0.00
38197;BME280;26543;51.976;4.616;2023-07-08T07:56:34;52129.13;;;-140.72;0.00
38197;BME280;26543;51.976;4.616;2023-07-08T07:58:59;52100.72;;;-140.72;0.00
38197;BME280;26543;51.976;4.616;2023-07-08T08:01:25;52102.75;;;-140.72;0.00
38197;BME280;26543;51.976;4.616;2023-07-08T08:03:50;52102.75;;;-140.72;0.00
38197;BME280;26543;51.976;4.616;2023-07-08T08:06:16;52082.44;;;-140.72;0.00
38197;BME280;26543;51.976;4.616;2023-07-08T08:08:43;52045.94;;;-140.72;0.00
38197;BME280;26543;51.976;4.616;2023-07-08T08:11:08;52068.25;;;-140.72;0.00
38197;BME280;26543;51.976;4.616;2023-07-08T08:13:33;52039.84;;;-140.72;0.00
38197;BME280;26543;51.976;4.616;2023-07-08T08:15:59;52049.97;;;-140.72;0.00
38197;BME280;26543;51.976;4.616;2023-07-08T08:18:24;52001.28;;;-140.72;0.00
38197;BME280;26543;51.976;4.616;2023-07-08T08:20:51;52001.28;;;-140.72;0.00
38197;BME280;26543;51.976;4.616;2023-07-08T08:23:16;52041.88;;;-140.72;0.00
38197;BME280;26543;51.976;4.616;2023-07-08T08:25:41;52029.69;;;-140.72;0.00
38197;BME280;26543;51.976;4.616;2023-07-08T08:28:06;52031.72;;;-140.72;0.00
38197;BME280;26543;51.976;4.616;2023-07-08T08:30:32;51989.13;;;-140.72;0.00
38197;BME280;26543;51.976;4.616;2023-07-08T08:32:57;51942.44;;;-140.72;0.00
38197;BME280;26543;51.976;4.616;2023-07-08T08:35:22;51960.72;;;-140.72;0.00
38197;BME280;26543;51.976;4.616;2023-07-08T08:37:48;51981.00;;;-140.72;0.00
38197;BME280;26543;51.976;4.616;2023-07-08T08:40:15;51976.94;;;-140.72;0.00
38197;BME280;26543;51.976;4.616;2023-07-08T08:42:42;51968.81;;;-140.72;0.00
38197;BME280;26543;51.976;4.616;2023-07-08T08:45:09;51920.13;;;-140.72;0.00
38197;BME280;26543;51.976;4.616;2023-07-08T08:47:40;51981.00;;;-140.72;0.00
38197;BME280;26543;51.976;4.616;2023-07-08T08:52:51;51938.41;;;-140.72;0.00
38197;BME280;26543;51.976;4.616;2023-07-08T08:55:19;51936.38;;;-140.72;0.00
38197;BME280;26543;51.976;4.616;2023-07-08T08:57:49;51895.78;;;-140.72;0.00
38197;BME280;26543;51.976;4.616;2023-07-08T09:00:19;51871.44;;;-140.72;0.00
38197;BME280;26543;51.976;4.616;2023-07-08T09:05:41;51879.56;;;-140.72;0.00
38197;BME280;26543;51.976;4.616;2023-07-08T09:08:29;51863.31;;;-140.72;0.00
38197;BME280;26543;51.976;4.616;2023-07-08T09:11:15;51883.63;;;-140.72;0.00
38197;BME280;26543;51.976;4.616;2023-07-08T09:13:43;51875.50;;;-140.72;0.00
38197;BME280;26543;51.976;4.616;2023-07-08T09:18:58;51834.91;;;-140.72;0.00
38197;BME280;26543;51.976;4.616;2023-07-08T09:21:26;51838.97;;;-140.72;0.00
38197;BME280;26543;51.976;4.616;2023-07-08T09:23:54;51794.34;;;-140.72;0.00
38197;BME280;26543;51.976;4.616;2023-07-08T09:26:25;51818.69;;;-140.72;0.00
38197;BME280;26543;51.976;4.616;2023-07-08T09:28:51;51824.78;;;-140.72;0.00
38197;BME280;26543;51.976;4.616;2023-07-08T09:31:26;51812.59;;;-140.72;0.00
38197;BME280;26543;51.976;4.616;2023-07-08T09:33:53;51774.06;;;-140.72;0.00
38197;BME280;26543;51.976;4.616;2023-07-08T09:36:22;51725.38;;;-140.72;0.00
38197;BME280;26543;51.976;4.616;2023-07-08T09:38:48;51745.66;;;-140.72;0.00
38197;BME280;26543;51.976;4.616;2023-07-08T09:41:16;51719.28;;;-140.72;0.00
38197;BME280;26543;51.976;4.616;2023-07-08T09:43:43;51713.19;;;-140.72;0.00
38197;BME280;26543;51.976;4.616;2023-07-08T09:46:11;51688.84;;;-140.72;0.00
38197;BME280;26543;51.976;4.616;2023-07-08T09:48:37;51676.69;;;-140.72;0.00
38197;BME280;26543;51.976;4.616;2023-07-08T09:51:02;51628.00;;;-140.72;0.00
38197;BME280;26543;51.976;4.616;2023-07-08T09:53:28;51621.91;;;-140.72;0.00
38197;BME280;26543;51.976;4.616;2023-07-08T09:55:54;51581.31;;;-140.72;0.00
38197;BME280;26543;51.976;4.616;2023-07-08T09:58:23;51597.56;;;-140.72;0.00
38197;BME280;26543;51.976;4.616;2023-07-08T10:00:59;51632.03;;;-140.72;0.00
38197;BME280;26543;51.976;4.616;2023-07-08T10:03:30;51595.53;;;-140.72;0.00
38197;BME280;26543;51.976;4.616;2023-07-08T10:05:57;51563.06;;;-140.72;0.00
38197;BME280;26543;51.976;4.616;2023-07-08T10:08:28;51569.16;;;-140.72;0.00
38197;BME280;26543;51.976;4.616;2023-07-08T10:11:04;51540.75;;;-140.72;0.00
38197;BME280;26543;51.976;4.616;2023-07-08T10:13:37;51546.84;;;-140.72;0.00
38197;BME280;26543;51.976;4.616;2023-07-08T10:16:14;51508.28;;;-140.72;0.00
38197;BME280;26543;51.976;4.616;2023-07-08T10:18:40;51477.88;;;-140.72;0.00
38197;BME280;26543;51.976;4.616;2023-07-08T10:21:28;51477.88;;;-140.72;0.00
38197;BME280;26543;51.976;4.616;2023-07-08T10:24:06;51477.88;;;-140.72;0.00
38197;BME280;26543;51.976;4.616;2023-07-08T10:26:35;51498.16;;;-140.72;0.00
38197;BME280;26543;51.976;4.616;2023-07-08T10:29:27;51396.72;;;-140.72;0.00
38197;BME280;26543;51.976;4.616;2023-07-08T10:42:12;51400.78;;;-140.72;0.00
38197;BME280;26543;51.976;4.616;2023-07-08T10:44:45;51447.44;;;-140.72;0.00
38197;BME280;26543;51.976;4.616;2023-07-08T10:52:38;51346.00;;;-140.72;0.00
38197;BME280;26543;51.976;4.616;2023-07-08T11:07:52;51356.16;;;-140.72;0.00
38197;BME280;26543;51.976;4.616;2023-07-08T11:10:28;51335.88;;;-140.72;0.00
38197;BME280;26543;51.976;4.616;2023-07-08T11:13:11;51323.69;;;-140.72;0.00
38197;BME280;26543;51.976;4.616;2023-07-08T11:15:49;51346.00;;;-140.72;0.00
38197;BME280;26543;51.976;4.616;2023-07-08T11:18:18;51427.16;;;-140.72;0.00
38197;BME280;26543;51.976;4.616;2023-07-08T11:25:41;51343.97;;;-140.72;0.00
38197;BME280;26543;51.976;4.616;2023-07-08T11:28:08;51287.19;;;-140.72;0.00
38197;BME280;26543;51.976;4.616;2023-07-08T11:30:36;51311.53;;;-140.72;0.00
38197;BME280;26543;51.976;4.616;2023-07-08T11:33:10;51287.19;;;-140.72;0.00
38197;BME280;26543;51.976;4.616;2023-07-08T11:38:01;51266.88;;;-140.72;0.00
38197;BME280;26543;51.976;4.616;2023-07-08T11:40:28;51291.22;;;-140.72;0.00
38197;BME280;26543;51.976;4.616;2023-07-08T11:42:59;51293.25;;;-140.72;0.00
38197;BME280;26543;51.976;4.616;2023-07-08T11:45:27;51248.63;;;-140.72;0.00
38197;BME280;26543;51.976;4.616;2023-07-08T11:47:55;51352.09;;;-140.72;0.00
38197;BME280;26543;51.976;4.616;2023-07-08T11:50:29;51335.88;;;-140.72;0.00
38197;BME280;26543;51.976;4.616;2023-07-08T11:56:18;51234.44;;;-140.72;0.00
38197;BME280;26543;51.976;4.616;2023-07-08T11:58:25;51222.25;;;-140.72;0.00
38197;BME280;26543;51.976;4.616;2023-07-08T12:00:58;51212.13;;;-140.72;0.00
38197;BME280;26543;51.976;4.616;2023-07-08T12:03:33;51236.47;;;-140.72;0.00
38197;BME280;26543;51.976;4.616;2023-07-08T12:05:59;51216.19;;;-140.72;0.00
38197;BME280;26543;51.976;4.616;2023-07-08T12:08:36;51201.97;;;-140.72;0.00
38197;BME280;26543;51.976;4.616;2023-07-08T12:11:02;51254.72;;;-140.72;0.00
38197;BME280;26543;51.976;4.616;2023-07-08T12:13:28;51185.75;;;-140.72;0.00
38197;BME280;26543;51.976;4.616;2023-07-08T12:15:55;51230.38;;;-140.72;0.00
38197;BME280;26543;51.976;4.616;2023-07-08T12:20:46;51222.25;;;-140.72;0.00
38197;BME280;26543;51.976;4.616;2023-07-08T12:23:14;51189.81;;;-140.72;0.00
38197;BME280;26543;51.976;4.616;2023-07-08T12:25:39;51165.47;;;-140.72;0.00
38197;BME280;26543;51.976;4.616;2023-07-08T12:28:05;51128.94;;;-140.72;0.00
38197;BME280;26543;51.976;4.616;2023-07-08T12:30:31;51173.56;;;-140.72;0.00
38197;BME280;26543;51.976;4.616;2023-07-08T12:32:58;51139.09;;;-140.72;0.00
38197;BME280;26543;51.976;4.616;2023-07-08T12:35:25;51102.59;;;-140.72;0.00
38197;BME280;26543;51.976;4.616;2023-07-08T12:37:52;51102.59;;;-140.72;0.00
38197;BME280;26543;51.976;4.616;2023-07-08T12:40:19;51120.84;;;-140.72;0.00
38197;BME280;26543;51.976;4.616;2023-07-08T12:45:49;51100.56;;;-140.72;0.00
38197;BME280;26543;51.976;4.616;2023-07-08T12:48:14;51086.34;;;-140.72;0.00
38197;BME280;26543;51.976;4.616;2023-07-08T12:53:10;51096.50;;;-140.72;0.00
38197;BME280;26543;51.976;4.616;2023-07-08T12:55:37;51106.63;;;-140.72;0.00
38197;BME280;26543;51.976;4.616;2023-07-08T12:58:04;51114.75;;;-140.72;0.00
38197;BME280;26543;51.976;4.616;2023-07-08T13:03:23;51128.94;;;-140.72;0.00
38197;BME280;26543;51.976;4.616;2023-07-08T13:05:49;51173.56;;;-140.72;0.00
38197;BME280;26543;51.976;4.616;2023-07-08T13:10:55;51128.94;;;-140.72;0.00
38197;BME280;26543;51.976;4.616;2023-07-08T13:13:22;51122.88;;;-140.72;0.00
38197;BME280;26543;51.976;4.616;2023-07-08T13:15:48;51159.38;;;-140.72;0.00
38197;BME280;26543;51.976;4.616;2023-07-08T13:18:17;51106.63;;;-140.72;0.00
38197;BME280;26543;51.976;4.616;2023-07-08T13:20:45;51173.56;;;-140.72;0.00
38197;BME280;26543;51.976;4.616;2023-07-08T13:23:21;51096.50;;;-140.72;0.00
38197;BME280;26543;51.976;4.616;2023-07-08T13:25:47;51212.13;;;-140.72;0.00
38197;BME280;26543;51.976;4.616;2023-07-08T13:28:17;51157.34;;;-140.72;0.00
38197;BME280;26543;51.976;4.616;2023-07-08T13:33:18;51086.34;;;-140.72;0.00
38197;BME280;26543;51.976;4.616;2023-07-08T13:35:43;51124.91;;;-140.72;0.00
38197;BME280;26543;51.976;4.616;2023-07-08T13:38:16;51128.94;;;-140.72;0.00
38197;BME280;26543;51.976;4.616;2023-07-08T13:40:45;51130.97;;;-140.72;0.00
38197;BME280;26543;51.976;4.616;2023-07-08T13:43:11;51122.88;;;-140.72;0.00
38197;BME280;26543;51.976;4.616;2023-07-08T13:45:37;51191.84;;;-140.72;0.00
38197;BME280;26543;51.976;4.616;2023-07-08T13:48:13;51228.34;;;-140.72;0.00
38197;BME280;26543;51.976;4.616;2023-07-08T13:50:44;51268.91;;;-140.72;0.00
38197;BME280;26543;51.976;4.616;2023-07-08T13:53:21;51285.16;;;-140.72;0.00
38197;BME280;26543;51.976;4.616;2023-07-08T13:55:47;51319.63;;;-140.72;0.00
38197;BME280;26543;51.976;4.616;2023-07-08T13:58:16;51331.81;;;-140.72;0.00
38197;BME280;26543;51.976;4.616;2023-07-08T14:00:42;51264.88;;;-140.72;0.00
38197;BME280;26543;51.976;4.616;2023-07-08T14:03:11;51341.94;;;-140.72;0.00
38197;BME280;26543;51.976;4.616;2023-07-08T14:05:37;51295.28;;;-140.72;0.00